createdAt,value
2018-07-04T00:00:23.461Z,10.63
2018-07-04T00:03:03.274Z,9.53
2018-07-04T00:05:43.133Z,9.50
2018-07-04T00:08:22.997Z,9.00
2018-07-04T00:11:02.728Z,8.73
2018-07-04T00:13:42.517Z,9.37
2018-07-04T00:16:22.399Z,11.80
2018-07-04T00:19:02.258Z,12.13
2018-07-04T00:21:41.971Z,10.30
2018-07-04T00:24:21.760Z,8.47
2018-07-04T00:27:01.560Z,11.63
2018-07-04T00:29:41.407Z,9.87
2018-07-04T00:32:21.330Z,9.00
2018-07-04T00:35:01.139Z,9.23
2018-07-04T00:37:42.046Z,12.83
2018-07-04T00:40:21.936Z,10.93
2018-07-04T00:43:01.698Z,10.00
2018-07-04T00:45:41.490Z,12.63
2018-07-04T00:48:21.250Z,9.63
2018-07-04T00:51:00.930Z,8.43
2018-07-04T00:53:40.902Z,8.40
2018-07-04T00:56:20.485Z,10.53
2018-07-04T00:59:00.433Z,7.87
2018-07-04T01:01:40.241Z,8.33
2018-07-04T01:04:19.907Z,12.07
2018-07-04T01:06:59.815Z,8.57
2018-07-04T01:09:39.534Z,9.83
2018-07-04T01:12:19.293Z,11.17
2018-07-04T01:14:59.042Z,11.17
2018-07-04T01:17:38.800Z,12.33
2018-07-04T01:20:18.718Z,10.80
2018-07-04T01:22:58.418Z,8.97
2018-07-04T01:25:38.027Z,13.27
2018-07-04T01:28:17.651Z,12.63
2018-07-04T01:30:57.473Z,9.20
2018-07-04T01:33:37.172Z,9.60
2018-07-04T01:36:16.827Z,10.80
2018-07-04T01:38:56.419Z,12.60
2018-07-04T01:41:36.125Z,10.77
2018-07-04T01:44:15.870Z,11.47
2018-07-04T01:46:55.559Z,11.17
2018-07-04T01:49:35.298Z,10.70
2018-07-04T01:52:15.072Z,11.17
2018-07-04T01:54:54.867Z,9.80
2018-07-04T01:57:34.560Z,14.77
2018-07-04T02:00:14.314Z,11.40
2018-07-04T02:02:54.020Z,14.73
2018-07-04T02:05:33.833Z,10.37
2018-07-04T02:08:13.557Z,15.40
2018-07-04T02:10:53.425Z,12.03
2018-07-04T02:13:33.089Z,13.17
2018-07-04T02:16:12.659Z,12.83
2018-07-04T02:18:52.505Z,13.87
2018-07-04T02:21:32.297Z,14.93
2018-07-04T02:24:11.998Z,12.37
2018-07-04T02:26:51.845Z,15.47
2018-07-04T02:29:31.466Z,15.90
2018-07-04T02:32:11.128Z,19.03
2018-07-04T02:34:53.575Z,19.77
2018-07-04T02:37:33.235Z,23.77
2018-07-04T02:40:12.886Z,22.37
2018-07-04T02:42:52.702Z,17.67
2018-07-04T02:45:32.486Z,15.67
2018-07-04T02:48:12.241Z,14.07
2018-07-04T02:50:51.840Z,13.07
2018-07-04T02:53:31.632Z,12.13
2018-07-04T02:56:11.335Z,12.70
2018-07-04T02:58:50.988Z,13.37
2018-07-04T03:01:30.661Z,14.03
2018-07-04T03:04:10.430Z,13.97
2018-07-04T03:06:50.138Z,12.97
2018-07-04T03:09:29.790Z,15.30
2018-07-04T03:12:09.603Z,14.27
2018-07-04T03:14:49.443Z,16.80
2018-07-04T03:17:29.130Z,13.90
2018-07-04T03:20:08.925Z,16.63
2018-07-04T03:22:48.476Z,18.10
2018-07-04T03:25:28.045Z,16.10
2018-07-04T03:28:07.852Z,15.10
2018-07-04T03:30:47.694Z,14.90
2018-07-04T03:33:27.362Z,12.13
2018-07-04T03:36:07.146Z,17.40
2018-07-04T03:38:46.972Z,11.23
2018-07-04T03:41:26.960Z,13.43
2018-07-04T03:44:06.685Z,12.17
2018-07-04T03:46:46.691Z,10.17
2018-07-04T03:49:26.610Z,10.60
2018-07-04T03:52:06.660Z,9.63
2018-07-04T03:54:46.455Z,8.40
2018-07-04T03:57:26.206Z,8.67
2018-07-04T04:00:06.054Z,7.93
2018-07-04T04:02:45.998Z,10.27
2018-07-04T04:05:25.655Z,9.60
2018-07-04T04:08:05.576Z,10.20
2018-07-04T04:10:45.327Z,11.20
2018-07-04T04:13:24.999Z,10.63
2018-07-04T04:16:04.656Z,8.33
2018-07-04T04:18:44.480Z,8.40
2018-07-04T04:21:24.221Z,9.33
2018-07-04T04:24:03.945Z,8.83
2018-07-04T04:26:43.556Z,10.40
2018-07-04T04:29:23.336Z,8.63
2018-07-04T04:32:03.085Z,8.23
2018-07-04T04:34:42.934Z,12.43
2018-07-04T04:37:22.751Z,10.27
2018-07-04T04:40:02.388Z,11.33
2018-07-04T04:42:42.194Z,8.73
2018-07-04T04:45:21.813Z,8.20
2018-07-04T04:48:01.437Z,8.53
2018-07-04T04:50:41.010Z,11.47
2018-07-04T04:53:20.834Z,7.77
2018-07-04T04:56:00.638Z,9.27
2018-07-04T04:58:40.312Z,15.63
2018-07-04T05:01:20.090Z,11.83
2018-07-04T05:03:59.846Z,8.43
2018-07-04T05:06:39.548Z,12.70
2018-07-04T05:09:19.284Z,16.50
2018-07-04T05:11:59.176Z,14.10
2018-07-04T05:14:39.020Z,11.83
2018-07-04T05:17:18.652Z,21.87
2018-07-04T05:19:58.256Z,11.63
2018-07-04T05:22:38.027Z,12.47
2018-07-04T05:25:17.663Z,20.10
2018-07-04T05:27:57.529Z,11.07
2018-07-04T05:30:37.191Z,7.87
2018-07-04T05:33:16.949Z,10.57
2018-07-04T05:35:56.684Z,6.47
2018-07-04T05:38:36.281Z,11.10
2018-07-04T05:41:15.936Z,9.70
2018-07-04T05:43:55.751Z,7.50
2018-07-04T05:46:35.490Z,9.33
2018-07-04T05:49:15.110Z,8.67
2018-07-04T05:51:54.849Z,8.80
2018-07-04T05:54:34.716Z,13.37
2018-07-04T05:57:14.546Z,14.40
2018-07-04T05:59:54.372Z,12.50
2018-07-04T06:02:34.027Z,10.30
2018-07-04T06:05:13.802Z,11.77
2018-07-04T06:07:53.608Z,7.07
2018-07-04T06:10:34.397Z,8.23
2018-07-04T06:13:13.986Z,9.07
2018-07-04T06:15:54.004Z,7.53
2018-07-04T06:18:33.745Z,8.47
2018-07-04T06:21:13.474Z,8.57
2018-07-04T06:23:53.329Z,7.87
2018-07-04T06:26:33.296Z,8.17
2018-07-04T06:29:13.063Z,8.27
2018-07-04T06:31:53.424Z,9.37
2018-07-04T06:34:33.538Z,9.17
2018-07-04T06:37:13.601Z,13.60
2018-07-04T06:39:41.152Z,8.53
2018-07-04T06:42:08.665Z,12.53
2018-07-04T06:44:36.070Z,11.70
2018-07-04T06:47:04.285Z,13.40
2018-07-04T06:49:32.969Z,11.53
2018-07-04T06:52:00.342Z,13.60
2018-07-04T06:54:27.861Z,13.10
2018-07-04T06:56:55.236Z,8.93
2018-07-04T06:59:22.624Z,11.20
2018-07-04T07:01:50.002Z,10.20
2018-07-04T07:04:29.847Z,9.43
2018-07-04T07:07:09.646Z,9.50
2018-07-04T07:09:49.458Z,9.33
2018-07-04T07:12:29.264Z,10.13
2018-07-04T07:15:10.053Z,9.37
2018-07-04T07:17:49.683Z,10.13
2018-07-04T07:20:29.459Z,8.70
2018-07-04T07:23:09.239Z,10.13
2018-07-04T07:25:49.005Z,8.77
2018-07-04T07:28:28.670Z,12.03
2018-07-04T07:31:08.579Z,8.70
2018-07-04T07:33:48.328Z,8.07
2018-07-04T07:36:28.053Z,9.40
2018-07-04T07:39:07.838Z,8.03
2018-07-04T07:41:47.414Z,9.33
2018-07-04T07:44:27.065Z,13.50
2018-07-04T07:47:06.857Z,9.23
2018-07-04T07:49:46.526Z,10.15
2018-07-04T07:52:26.428Z,9.08
2018-07-04T07:55:06.238Z,8.53
2018-07-04T07:57:45.895Z,10.72
2018-07-04T08:00:25.769Z,8.70
2018-07-04T08:03:05.741Z,9.57
2018-07-04T08:05:45.852Z,9.10
2018-07-04T08:08:25.723Z,12.20
2018-07-04T08:11:05.626Z,10.67
2018-07-04T08:13:45.424Z,7.30
2018-07-04T08:16:25.247Z,8.23
2018-07-04T08:19:04.948Z,8.80
2018-07-04T08:21:44.759Z,8.10
2018-07-04T08:24:24.664Z,10.57
2018-07-04T08:27:04.449Z,7.03
2018-07-04T08:29:44.130Z,9.73
2018-07-04T08:32:23.801Z,7.93
2018-07-04T08:35:03.629Z,6.90
2018-07-04T08:37:43.366Z,8.47
2018-07-04T08:40:23.385Z,9.10
2018-07-04T08:43:03.121Z,7.63
2018-07-04T08:45:43.085Z,7.50
2018-07-04T08:48:22.802Z,7.63
2018-07-04T08:51:02.563Z,6.83
2018-07-04T08:53:42.189Z,7.37
2018-07-04T08:56:21.896Z,10.23
2018-07-04T08:59:01.814Z,6.85
2018-07-04T09:01:41.730Z,9.03
2018-07-04T09:04:21.355Z,7.60
2018-07-04T09:07:01.167Z,6.70
2018-07-04T09:09:40.933Z,8.18
2018-07-04T09:12:20.716Z,7.97
2018-07-04T09:15:00.579Z,9.83
2018-07-04T09:17:40.355Z,10.27
2018-07-04T09:20:20.179Z,5.90
2018-07-04T09:23:00.072Z,7.53
2018-07-04T09:25:40.079Z,7.30
2018-07-04T09:28:19.780Z,8.77
2018-07-04T09:30:59.604Z,6.57
2018-07-04T09:33:39.536Z,7.97
2018-07-04T09:36:19.361Z,8.73
2018-07-04T09:38:59.208Z,11.80
2018-07-04T09:41:38.930Z,8.50
2018-07-04T09:44:18.541Z,8.83
2018-07-04T09:46:58.409Z,6.13
2018-07-04T09:49:38.220Z,8.60
2018-07-04T09:52:17.927Z,9.13
2018-07-04T09:54:57.729Z,13.70
2018-07-04T09:57:37.468Z,6.50
2018-07-04T10:00:21.367Z,12.53
2018-07-04T10:03:01.262Z,8.53
2018-07-04T10:05:40.954Z,7.80
2018-07-04T10:08:20.691Z,8.00
2018-07-04T10:11:00.393Z,9.47
2018-07-04T10:13:40.069Z,7.53
2018-07-04T10:16:19.979Z,9.40
2018-07-04T10:18:59.890Z,7.20
2018-07-04T10:21:39.533Z,6.73
2018-07-04T10:24:19.449Z,7.03
2018-07-04T10:26:59.264Z,9.40
2018-07-04T10:29:39.513Z,8.00
2018-07-04T10:32:19.558Z,6.60
2018-07-04T10:34:59.437Z,8.40
2018-07-04T10:37:39.177Z,11.23
2018-07-04T10:40:18.862Z,6.83
2018-07-04T10:42:58.466Z,7.07
2018-07-04T10:45:38.299Z,8.93
2018-07-04T10:48:18.096Z,7.43
2018-07-04T10:50:57.862Z,6.57
2018-07-04T10:53:39.874Z,8.63
2018-07-04T10:56:19.750Z,6.47
2018-07-04T10:58:59.619Z,8.90
2018-07-04T11:01:39.459Z,6.73
2018-07-04T11:04:19.378Z,5.73
2018-07-04T11:06:59.399Z,5.57
2018-07-04T11:09:39.221Z,5.90
2018-07-04T11:12:18.790Z,7.20
2018-07-04T11:19:59.476Z,6.22
2018-07-04T11:22:39.348Z,8.23
2018-07-04T11:25:19.257Z,7.85
2018-07-04T11:27:59.235Z,7.00
2018-07-04T11:30:39.606Z,8.93
2018-07-04T11:33:19.294Z,7.70
2018-07-04T11:35:59.054Z,8.10
2018-07-04T11:38:38.843Z,14.45
2018-07-04T11:41:18.436Z,7.78
2018-07-04T11:43:58.318Z,3.33
2018-07-04T11:46:25.768Z,6.78
2018-07-04T11:48:53.210Z,5.95
2018-07-04T11:51:20.666Z,3.65
2018-07-04T11:53:48.057Z,10.05
2018-07-04T11:56:15.502Z,5.45
2018-07-04T11:58:43.256Z,6.55
2018-07-04T12:01:10.706Z,6.37
2018-07-04T12:03:51.105Z,5.95
2018-07-04T12:06:30.969Z,4.63
2018-07-04T12:08:58.432Z,4.50
2018-07-04T12:11:25.791Z,3.30
2018-07-04T12:13:53.229Z,6.93
2018-07-04T12:16:20.538Z,5.97
2018-07-04T12:18:47.874Z,7.87
2018-07-04T12:21:15.199Z,7.60
2018-07-04T12:23:42.538Z,5.03
2018-07-04T12:26:09.851Z,3.93
2018-07-04T12:28:43.553Z,3.13
2018-07-04T12:31:10.850Z,9.33
2018-07-04T12:33:38.181Z,4.03
2018-07-04T12:36:05.481Z,7.40
2018-07-04T12:38:32.802Z,9.70
2018-07-04T12:41:00.120Z,4.33
2018-07-04T12:43:27.490Z,7.80
2018-07-04T12:45:54.771Z,6.43
2018-07-04T12:48:22.392Z,5.37
2018-07-04T12:50:49.701Z,5.93
2018-07-04T12:53:17.024Z,5.80
2018-07-04T12:55:56.900Z,7.27
2018-07-04T12:58:36.372Z,8.83
2018-07-04T13:01:16.057Z,4.90
2018-07-04T13:03:55.695Z,4.03
2018-07-04T13:06:35.572Z,4.30
2018-07-04T13:09:15.153Z,9.07
2018-07-04T13:11:55.140Z,8.13
2018-07-04T13:14:34.785Z,3.73
2018-07-04T13:17:14.630Z,4.37
2018-07-04T13:19:54.394Z,7.03
2018-07-04T13:22:34.230Z,3.53
2018-07-04T13:25:13.890Z,4.10
2018-07-04T13:27:53.727Z,6.72
2018-07-04T13:30:33.457Z,7.43
2018-07-04T13:33:13.327Z,9.50
2018-07-04T13:35:53.121Z,10.67
2018-07-04T13:38:32.858Z,4.83
2018-07-04T13:41:12.730Z,7.17
2018-07-04T13:43:52.487Z,4.87
2018-07-04T13:46:32.243Z,6.93
2018-07-04T13:49:12.092Z,8.20
2018-07-04T13:51:51.766Z,10.53
2018-07-04T13:54:31.522Z,4.73
2018-07-04T13:57:11.374Z,10.77
2018-07-04T13:59:51.176Z,8.63
2018-07-04T14:02:30.843Z,14.13
2018-07-04T14:05:10.681Z,8.80
2018-07-04T14:07:50.543Z,10.47
2018-07-04T14:10:30.275Z,11.87
2018-07-04T14:13:09.999Z,6.30
2018-07-04T14:15:49.714Z,7.20
2018-07-04T14:18:29.488Z,5.70
2018-07-04T14:21:09.165Z,4.73
2018-07-04T14:23:48.841Z,10.47
2018-07-04T14:26:28.488Z,4.87
2018-07-04T14:29:08.345Z,6.53
2018-07-04T14:31:48.119Z,3.97
2018-07-04T14:34:28.102Z,10.83
2018-07-04T14:37:08.020Z,12.70
2018-07-04T14:39:47.627Z,7.60
2018-07-04T14:42:27.441Z,7.00
2018-07-04T14:45:07.078Z,6.43
2018-07-04T14:47:46.774Z,5.20
2018-07-04T14:50:26.520Z,10.73
2018-07-04T14:53:06.389Z,8.13
2018-07-04T14:55:46.114Z,8.07
2018-07-04T14:58:25.841Z,4.07
2018-07-04T15:01:05.615Z,7.90
2018-07-04T15:03:45.329Z,5.03
2018-07-04T15:06:25.112Z,6.87
2018-07-04T15:09:05.104Z,3.63
2018-07-04T15:11:44.885Z,6.70
2018-07-04T15:14:24.880Z,7.50
2018-07-04T15:17:04.638Z,4.90
2018-07-04T15:19:44.292Z,6.80
2018-07-04T15:22:23.868Z,4.70
2018-07-04T15:25:03.739Z,5.00
2018-07-04T15:27:43.592Z,4.93
2018-07-04T15:30:23.326Z,5.47
2018-07-04T15:33:03.183Z,6.57
2018-07-04T15:35:43.023Z,4.20
2018-07-04T15:38:22.797Z,4.93
2018-07-04T15:41:02.796Z,8.53
2018-07-04T15:43:42.494Z,5.10
2018-07-04T15:46:22.435Z,9.97
2018-07-04T15:49:02.194Z,7.50
2018-07-04T15:51:41.937Z,3.47
2018-07-04T15:54:21.695Z,5.80
2018-07-04T15:57:01.366Z,8.73
2018-07-04T15:59:41.138Z,8.53
2018-07-04T16:02:20.813Z,4.73
2018-07-04T16:05:00.365Z,9.47
2018-07-04T16:07:40.100Z,5.67
2018-07-04T16:10:19.534Z,4.53
2018-07-04T16:12:59.249Z,9.10
2018-07-04T16:15:38.866Z,4.63
2018-07-04T16:18:18.572Z,9.70
2018-07-04T16:20:58.308Z,4.43
2018-07-04T16:23:38.097Z,8.70
2018-07-04T16:26:17.885Z,7.43
2018-07-04T16:28:57.732Z,5.80
2018-07-04T16:31:37.422Z,3.73
2018-07-04T16:34:17.304Z,6.90
2018-07-04T16:36:57.105Z,7.83
2018-07-04T16:39:36.786Z,7.10
2018-07-04T16:42:16.543Z,8.73
2018-07-04T16:44:56.398Z,10.37
2018-07-04T16:47:36.161Z,4.73
2018-07-04T16:50:16.033Z,7.70
2018-07-04T16:52:55.695Z,8.03
2018-07-04T16:55:35.660Z,6.43
2018-07-04T16:58:15.417Z,3.87
2018-07-04T17:00:55.060Z,5.87
2018-07-04T17:03:34.721Z,7.33
2018-07-04T17:06:14.478Z,4.97
2018-07-04T17:08:54.221Z,6.33
2018-07-04T17:11:34.031Z,13.27
2018-07-04T17:14:13.890Z,4.80
2018-07-04T17:16:53.694Z,6.33
2018-07-04T17:19:33.626Z,8.30
2018-07-04T17:22:13.326Z,7.17
2018-07-04T17:24:53.087Z,7.87
2018-07-04T17:27:32.862Z,4.70
2018-07-04T17:30:12.543Z,4.53
2018-07-04T17:32:52.441Z,5.80
2018-07-04T17:35:32.159Z,6.37
2018-07-04T17:38:11.895Z,4.37
2018-07-04T17:40:51.537Z,4.73
2018-07-04T17:43:31.542Z,13.17
2018-07-04T17:46:11.345Z,4.73
2018-07-04T17:48:51.007Z,4.70
2018-07-04T17:51:30.660Z,3.40
2018-07-04T17:54:10.380Z,6.37
2018-07-04T17:56:50.124Z,5.97
2018-07-04T17:59:29.826Z,3.90
2018-07-04T18:02:09.679Z,4.80
2018-07-04T18:04:49.390Z,4.70
2018-07-04T18:07:29.100Z,3.90
2018-07-04T18:10:08.921Z,4.57
2018-07-04T18:12:48.719Z,4.40
2018-07-04T18:15:28.504Z,4.83
2018-07-04T18:18:08.291Z,7.43
2018-07-04T18:20:48.011Z,8.47
2018-07-04T18:23:27.612Z,6.77
2018-07-04T18:26:07.349Z,6.23
2018-07-04T18:28:46.959Z,5.80
2018-07-04T18:31:26.754Z,8.03
2018-07-04T18:34:06.465Z,6.33
2018-07-04T18:36:46.211Z,6.67
2018-07-04T18:39:25.965Z,7.10
2018-07-04T18:42:05.742Z,8.80
2018-07-04T18:44:45.374Z,9.07
2018-07-04T18:47:25.209Z,8.33
2018-07-04T18:50:04.894Z,6.27
2018-07-04T18:52:44.702Z,7.83
2018-07-04T18:55:24.325Z,5.50
2018-07-04T18:58:04.142Z,5.87
2018-07-04T19:00:43.859Z,5.80
2018-07-04T19:03:23.581Z,6.70
2018-07-04T19:06:03.294Z,8.33
2018-07-04T19:08:43.158Z,7.17
2018-07-04T19:11:22.745Z,14.57
2018-07-04T19:14:02.358Z,11.70
2018-07-04T19:16:41.937Z,6.33
2018-07-04T19:19:21.509Z,6.97
2018-07-04T19:22:01.083Z,10.67
2018-07-04T19:24:40.844Z,13.10
2018-07-04T19:27:20.731Z,8.37
2018-07-04T19:30:00.397Z,7.70
2018-07-04T19:32:40.100Z,7.87
2018-07-04T19:35:19.842Z,7.77
2018-07-04T19:37:59.541Z,8.17
2018-07-04T19:40:39.296Z,5.50
2018-07-04T19:43:19.122Z,7.33
2018-07-04T19:45:59.034Z,6.57
2018-07-04T19:48:38.725Z,5.90
2018-07-04T19:51:18.648Z,10.13
2018-07-04T19:53:58.350Z,7.53
2018-07-04T19:56:38.209Z,7.87
2018-07-04T19:59:17.919Z,8.03
2018-07-04T20:01:57.706Z,8.17
2018-07-04T20:04:37.560Z,9.47
2018-07-04T20:07:17.249Z,8.90
2018-07-04T20:09:56.922Z,7.10
2018-07-04T20:12:36.699Z,10.10
2018-07-04T20:15:16.553Z,7.30
2018-07-04T20:17:56.166Z,10.93
2018-07-04T20:20:35.873Z,8.83
2018-07-04T20:23:15.775Z,6.00
2018-07-04T20:25:55.731Z,6.20
2018-07-04T20:28:35.448Z,6.63
2018-07-04T20:31:15.277Z,8.50
2018-07-04T20:33:55.139Z,6.53
2018-07-04T20:36:34.799Z,7.80
2018-07-04T20:39:14.488Z,8.73
2018-07-04T20:41:54.178Z,11.03
2018-07-04T20:44:35.646Z,6.47
2018-07-04T20:47:15.381Z,6.23
2018-07-04T20:49:55.214Z,14.13
2018-07-04T20:52:35.174Z,9.63
2018-07-04T20:55:15.022Z,10.53
2018-07-04T20:57:54.711Z,10.47
2018-07-04T21:00:36.971Z,8.47
2018-07-04T21:03:16.757Z,8.90
2018-07-04T21:05:56.714Z,7.67
2018-07-04T21:08:36.338Z,10.07
2018-07-04T21:11:18.130Z,13.37
2018-07-04T21:14:00.077Z,7.17
2018-07-04T21:16:40.535Z,7.23
2018-07-04T21:19:20.455Z,9.20
2018-07-04T21:22:00.296Z,9.90
2018-07-04T21:24:39.953Z,13.67
2018-07-04T21:27:19.751Z,12.67
2018-07-04T21:29:59.614Z,10.33
2018-07-04T21:32:39.594Z,14.10
2018-07-04T21:35:19.315Z,15.83
2018-07-04T21:37:59.159Z,12.20
2018-07-04T21:40:38.924Z,13.87
2018-07-04T21:43:18.869Z,14.10
2018-07-04T21:45:58.634Z,9.83
2018-07-04T21:48:38.578Z,13.77
2018-07-04T21:51:18.284Z,15.80
2018-07-04T21:53:58.145Z,10.83
2018-07-04T21:56:37.988Z,17.70
2018-07-04T21:59:17.820Z,10.93
2018-07-04T22:01:57.430Z,11.27
2018-07-04T22:04:37.179Z,11.57
2018-07-04T22:07:16.932Z,14.57
2018-07-04T22:09:56.729Z,13.73
2018-07-04T22:12:36.414Z,13.80
2018-07-04T22:15:16.047Z,17.43
2018-07-04T22:17:55.545Z,12.03
2018-07-04T22:20:35.302Z,13.37
2018-07-04T22:23:14.972Z,12.43
2018-07-04T22:25:54.738Z,11.40
2018-07-04T22:28:34.647Z,16.17
2018-07-04T22:31:14.401Z,10.80
2018-07-04T22:33:54.259Z,10.40
2018-07-04T22:36:34.098Z,10.40
2018-07-04T22:39:13.851Z,9.47
2018-07-04T22:41:53.623Z,10.63
2018-07-04T22:44:33.570Z,11.50
2018-07-04T22:47:13.297Z,14.80
2018-07-04T22:49:52.991Z,14.63
2018-07-04T22:52:32.690Z,14.33
2018-07-04T22:55:12.491Z,12.67
2018-07-04T22:57:52.201Z,15.13
2018-07-04T23:00:31.923Z,10.53
2018-07-04T23:03:11.682Z,12.43
2018-07-04T23:05:51.541Z,14.40
2018-07-04T23:08:31.451Z,11.67
2018-07-04T23:11:11.153Z,12.40
2018-07-04T23:13:50.844Z,14.43
2018-07-04T23:16:30.565Z,10.47
2018-07-04T23:19:10.470Z,10.83
2018-07-04T23:21:50.250Z,11.47
2018-07-04T23:24:30.042Z,10.27
2018-07-04T23:27:09.887Z,12.10
2018-07-04T23:29:49.686Z,11.70
2018-07-04T23:32:29.465Z,12.47
2018-07-04T23:35:09.235Z,15.43
2018-07-04T23:37:49.031Z,16.80
2018-07-04T23:40:28.699Z,13.93
2018-07-04T23:43:08.530Z,13.77
2018-07-04T23:45:48.501Z,14.47
2018-07-04T23:48:28.279Z,20.07
2018-07-04T23:51:08.195Z,13.50
2018-07-04T23:53:47.990Z,14.30
2018-07-04T23:56:27.660Z,14.93
2018-07-04T23:59:07.251Z,19.17
